Time;durP1;ratioP1;P1;durP2;ratioP2;P2;SDS_P1;SDS_P2;PMS_P1;PMS_P2;Temp;Humidity;BMP_temperature;BMP_pressure;BME280_temperature;BME280_humidity;BME280_pressure;Samples;Min_cycle;Max_cycle;Signal;HPM_P1;HPM_P2
2021/07/23 00:01:08;;;;;;;4.70;3.67;;;19.70;99.90;;;;;;4134933;28;20137;-72
2021/07/23 00:03:09;;;;;;;3.93;3.50;;;19.70;99.90;;;;;;4127158;28;20398;-73
2021/07/23 00:05:10;;;;;;;4.93;3.60;;;19.70;99.90;;;;;;4134901;28;20030;-72
2021/07/23 00:07:11;;;;;;;4.05;3.65;;;19.80;99.90;;;;;;4131314;28;20030;-72
2021/07/23 00:09:11;;;;;;;3.85;3.45;;;19.70;99.90;;;;;;4130666;28;20171;-72
2021/07/23 00:11:12;;;;;;;4.50;3.70;;;19.70;99.90;;;;;;4146455;28;20038;-72
2021/07/23 00:13:12;;;;;;;4.82;3.65;;;19.70;99.90;;;;;;4126164;28;20030;-73
2021/07/23 00:15:13;;;;;;;5.45;3.70;;;19.60;99.90;;;;;;4130246;28;20038;-73
2021/07/23 00:17:14;;;;;;;5.45;3.65;;;19.60;99.90;;;;;;4142957;28;20044;-72
2021/07/23 00:19:14;;;;;;;4.07;3.67;;;19.70;99.90;;;;;;4140421;28;20395;-72
2021/07/23 00:21:15;;;;;;;5.07;3.22;;;19.70;99.90;;;;;;4143963;28;20413;-72
2021/07/23 00:23:15;;;;;;;3.72;3.33;;;19.70;99.90;;;;;;4153224;28;20037;-72
2021/07/23 00:25:16;;;;;;;4.72;3.60;;;19.70;99.90;;;;;;4148287;28;20124;-72
2021/07/23 00:27:16;;;;;;;6.22;3.60;;;19.70;99.90;;;;;;4143591;28;20042;-72
2021/07/23 00:29:18;;;;;;;3.75;3.38;;;19.70;99.90;;;;;;4151554;28;20466;-72
2021/07/23 00:31:19;;;;;;;3.75;3.33;;;19.70;99.90;;;;;;4144993;28;20669;-72
2021/07/23 00:33:19;;;;;;;4.80;3.90;;;19.70;99.90;;;;;;4142403;28;20041;-72
2021/07/23 00:35:21;;;;;;;4.10;3.40;;;19.70;99.90;;;;;;4149762;28;20057;-72
2021/07/23 00:37:21;;;;;;;3.92;3.53;;;19.70;99.90;;;;;;4141869;28;20034;-73
2021/07/23 00:39:22;;;;;;;4.65;3.60;;;19.60;99.90;;;;;;4150162;28;20045;-73
2021/07/23 00:41:23;;;;;;;4.38;3.47;;;19.70;99.90;;;;;;4135013;28;20037;-72
2021/07/23 00:43:23;;;;;;;3.97;3.47;;;19.60;99.90;;;;;;4150048;28;20049;-73
2021/07/23 00:45:24;;;;;;;4.05;3.45;;;19.60;99.90;;;;;;4109257;28;20058;-73
2021/07/23 00:47:24;;;;;;;5.00;3.83;;;19.60;99.90;;;;;;4141222;28;20034;-73
2021/07/23 00:49:25;;;;;;;3.85;3.47;;;19.60;99.90;;;;;;4150108;28;20077;-72
2021/07/23 00:51:26;;;;;;;4.85;3.33;;;19.60;99.90;;;;;;4148907;28;20124;-72
2021/07/23 00:53:27;;;;;;;4.72;3.78;;;19.60;99.90;;;;;;4134112;28;20053;-73
2021/07/23 00:55:27;;;;;;;4.82;3.85;;;19.50;99.90;;;;;;4128791;28;21281;-72
2021/07/23 00:57:29;;;;;;;3.33;3.03;;;19.50;99.90;;;;;;4128447;28;20030;-72
2021/07/23 00:59:30;;;;;;;4.07;3.67;;;19.50;99.90;;;;;;4146400;28;20041;-72
2021/07/23 01:01:32;;;;;;;3.38;3.05;;;19.50;99.90;;;;;;4143708;28;20096;-72
2021/07/23 01:03:32;;;;;;;4.00;3.57;;;19.40;99.90;;;;;;4130685;28;20093;-72
2021/07/23 01:05:36;;;;;;;3.90;3.50;;;19.40;99.90;;;;;;4150234;28;20275;-72
2021/07/23 01:07:36;;;;;;;7.38;3.58;;;19.40;99.90;;;;;;4147037;28;20960;-72
2021/07/23 01:09:37;;;;;;;4.68;3.53;;;19.30;99.90;;;;;;4148477;28;20124;-72
2021/07/23 01:11:38;;;;;;;5.53;3.88;;;19.30;99.90;;;;;;4124852;28;20057;-73
2021/07/23 01:13:42;;;;;;;4.35;3.95;;;19.30;99.90;;;;;;4149967;28;20034;-72
2021/07/23 01:15:43;;;;;;;4.68;3.83;;;19.30;99.90;;;;;;4138473;28;20068;-72
2021/07/23 01:17:44;;;;;;;5.43;3.95;;;19.30;99.90;;;;;;4142160;28;20057;-73
2021/07/23 01:19:57;;;;;;;5.35;4.18;;;19.20;99.90;;;;;;4129270;28;20035;-72
2021/07/23 01:21:59;;;;;;;5.13;3.80;;;19.20;99.90;;;;;;4129333;28;20495;-72
2021/07/23 01:24:01;;;;;;;3.88;3.47;;;19.10;99.90;;;;;;4141836;28;20485;-72
2021/07/23 01:26:03;;;;;;;4.15;3.63;;;19.10;99.90;;;;;;4148849;28;20095;-72
2021/07/23 01:28:05;;;;;;;4.85;3.95;;;19.10;99.90;;;;;;4142795;28;20144;-72
2021/07/23 01:30:09;;;;;;;3.80;3.40;;;19.10;99.90;;;;;;4130324;28;20038;-72
2021/07/23 01:32:09;;;;;;;4.45;4.00;;;19.00;99.90;;;;;;4124825;28;20088;-73
2021/07/23 01:34:10;;;;;;;6.05;3.85;;;19.00;99.90;;;;;;4145673;28;20037;-72
2021/07/23 01:36:10;;;;;;;4.35;3.83;;;19.00;99.90;;;;;;4144251;28;20072;-72
2021/07/23 01:38:16;;;;;;;5.47;4.30;;;18.90;99.90;;;;;;4148116;28;20034;-73
2021/07/23 01:40:17;;;;;;;5.38;4.22;;;18.90;99.90;;;;;;4148867;28;20061;-72
2021/07/23 01:42:17;;;;;;;4.25;3.67;;;18.90;99.90;;;;;;4148627;28;20046;-72
2021/07/23 01:44:18;;;;;;;5.40;4.05;;;18.90;99.90;;;;;;4146573;28;20038;-72
2021/07/23 01:46:18;;;;;;;4.75;4.13;;;18.80;99.90;;;;;;4125571;28;20039;-73
2021/07/23 01:48:20;;;;;;;5.38;3.83;;;18.80;99.90;;;;;;4139412;28;20375;-72
2021/07/23 01:50:21;;;;;;;6.27;4.27;;;18.70;99.90;;;;;;4141642;28;20042;-72
2021/07/23 01:52:21;;;;;;;5.55;4.13;;;18.70;99.90;;;;;;4148259;28;20034;-73
2021/07/23 01:54:22;;;;;;;4.72;4.03;;;18.70;99.90;;;;;;4147113;28;20026;-72
2021/07/23 01:56:23;;;;;;;5.40;4.30;;;18.70;99.90;;;;;;4142781;28;20038;-72
2021/07/23 01:58:23;;;;;;;4.43;3.28;;;18.60;99.90;;;;;;4136097;28;20053;-72
2021/07/23 02:00:24;;;;;;;4.07;3.67;;;18.60;99.90;;;;;;4142455;28;20058;-72
2021/07/23 02:02:25;;;;;;;4.95;4.28;;;18.60;99.90;;;;;;4146760;28;20041;-73
2021/07/23 02:04:26;;;;;;;5.65;4.57;;;18.50;99.90;;;;;;4150727;28;20565;-73
2021/07/23 02:06:26;;;;;;;5.10;4.00;;;18.50;99.90;;;;;;4124387;28;20049;-72
2021/07/23 02:08:27;;;;;;;6.25;4.57;;;18.50;99.90;;;;;;4145808;28;20041;-73
2021/07/23 02:10:28;;;;;;;5.72;4.40;;;18.50;99.90;;;;;;4145711;28;20588;-72
2021/07/23 02:12:28;;;;;;;10.27;4.45;;;18.40;99.90;;;;;;4128796;28;20085;-72
2021/07/23 02:14:30;;;;;;;6.38;4.53;;;18.40;99.90;;;;;;4149771;28;20076;-72
2021/07/23 02:16:30;;;;;;;5.68;4.10;;;18.40;99.90;;;;;;4146366;28;20622;-72
2021/07/23 02:18:31;;;;;;;4.97;3.70;;;18.40;99.90;;;;;;4127332;28;20039;-73
2021/07/23 02:20:32;;;;;;;4.60;3.78;;;18.40;99.90;;;;;;4142299;28;20681;-72
2021/07/23 02:22:35;;;;;;;5.55;4.35;;;18.40;99.90;;;;;;4128525;28;20030;-72
2021/07/23 02:24:35;;;;;;;4.95;4.45;;;18.40;99.90;;;;;;4149158;28;20034;-72
2021/07/23 02:26:36;;;;;;;5.72;4.45;;;18.40;99.90;;;;;;4143064;28;20034;-72
2021/07/23 02:28:36;;;;;;;4.63;4.15;;;18.30;99.90;;;;;;4148894;28;20580;-72
2021/07/23 02:30:39;;;;;;;5.10;4.30;;;18.30;99.90;;;;;;4143881;28;20046;-72
2021/07/23 02:32:39;;;;;;;;;;;18.30;99.90;;;;;;4134193;28;20117;-73
2021/07/23 02:34:40;;;;;;;7.05;4.13;;;18.30;99.90;;;;;;4130647;28;19948;-73
2021/07/23 02:36:41;;;;;;;5.97;4.70;;;18.20;99.90;;;;;;4145165;28;20069;-72
2021/07/23 02:38:41;;;;;;;5.82;4.53;;;18.20;99.90;;;;;;4151976;28;20046;-72
2021/07/23 02:40:42;;;;;;;6.63;4.55;;;18.20;99.90;;;;;;4145988;28;20124;-72
2021/07/23 02:42:42;;;;;;;6.85;4.43;;;18.20;99.90;;;;;;4150650;28;20034;-72
2021/07/23 02:44:43;;;;;;;7.45;4.45;;;18.10;99.90;;;;;;4136243;28;20042;-72
2021/07/23 02:46:43;;;;;;;6.45;4.65;;;18.10;99.90;;;;;;4147241;28;20055;-72
2021/07/23 02:48:44;;;;;;;6.15;4.50;;;18.10;99.90;;;;;;4144090;28;20053;-73
2021/07/23 02:50:45;;;;;;;6.55;4.60;;;18.10;99.90;;;;;;4147595;28;20470;-72
2021/07/23 02:52:45;;;;;;;7.65;4.43;;;18.10;99.90;;;;;;4148514;28;20141;-72
2021/07/23 02:54:46;;;;;;;6.20;4.47;;;18.00;99.90;;;;;;4149187;28;20080;-73
2021/07/23 02:56:46;;;;;;;4.97;4.30;;;18.00;99.90;;;;;;4146381;28;20554;-72
2021/07/23 02:58:47;;;;;;;7.45;4.80;;;18.00;99.90;;;;;;4149671;28;20043;-73
2021/07/23 03:00:48;;;;;;;6.80;5.32;;;18.00;99.90;;;;;;4132583;28;20038;-72
2021/07/23 03:02:48;;;;;;;6.18;4.63;;;17.90;99.90;;;;;;4148304;28;20038;-72
2021/07/23 03:04:49;;;;;;;5.97;5.30;;;17.90;99.90;;;;;;4150882;28;21665;-72
2021/07/23 03:06:49;;;;;;;6.63;5.55;;;17.90;99.90;;;;;;4154133;28;20042;-72
2021/07/23 03:08:50;;;;;;;8.27;5.68;;;17.90;99.90;;;;;;4146352;28;20046;-72
2021/07/23 03:10:51;;;;;;;7.90;5.55;;;17.90;99.90;;;;;;4143755;28;20026;-72
2021/07/23 03:12:51;;;;;;;7.97;5.18;;;17.80;99.90;;;;;;4149255;28;20022;-72
2021/07/23 03:14:52;;;;;;;8.82;5.72;;;17.80;99.90;;;;;;4145000;28;20077;-72
2021/07/23 03:16:52;;;;;;;8.82;5.40;;;17.80;99.90;;;;;;4145544;28;20080;-72
2021/07/23 03:18:53;;;;;;;6.85;5.40;;;17.70;99.90;;;;;;4147738;28;20442;-72
2021/07/23 03:20:53;;;;;;;6.45;5.40;;;17.70;99.90;;;;;;4150840;28;20042;-73
2021/07/23 03:22:54;;;;;;;7.90;5.47;;;17.70;99.90;;;;;;4144231;28;20034;-72
2021/07/23 03:24:55;;;;;;;6.38;5.00;;;17.70;99.90;;;;;;4147573;28;20497;-72
2021/07/23 03:26:56;;;;;;;5.80;5.20;;;17.80;99.90;;;;;;4145655;28;20091;-73
2021/07/23 03:28:58;;;;;;;5.95;5.03;;;17.70;99.90;;;;;;4126341;28;20689;-72
2021/07/23 03:30:59;;;;;;;5.25;4.75;;;17.70;99.90;;;;;;4147040;28;20112;-72
2021/07/23 03:33:00;;;;;;;6.18;4.97;;;17.70;99.90;;;;;;4122883;28;20057;-73
2021/07/23 03:35:00;;;;;;;6.82;4.72;;;17.70;99.90;;;;;;4149072;28;20450;-72
2021/07/23 03:37:01;;;;;;;5.40;4.90;;;17.80;99.90;;;;;;4129983;28;20124;-72
2021/07/23 03:39:02;;;;;;;5.50;4.70;;;17.70;99.90;;;;;;4127207;28;20054;-72
2021/07/23 03:41:03;;;;;;;8.90;5.00;;;17.70;99.90;;;;;;4147773;28;20038;-72
2021/07/23 03:43:03;;;;;;;6.60;5.40;;;17.70;99.90;;;;;;4146256;28;20034;-73
2021/07/23 03:45:04;;;;;;;7.75;5.50;;;17.70;99.90;;;;;;4146969;28;20057;-72
2021/07/23 03:47:05;;;;;;;9.20;5.45;;;17.60;99.90;;;;;;4149334;28;20081;-73
2021/07/23 03:49:06;;;;;;;6.63;5.05;;;17.60;99.90;;;;;;4149200;28;20041;-72
2021/07/23 03:51:06;;;;;;;7.55;5.80;;;17.60;99.90;;;;;;4153564;28;20441;-72
2021/07/23 03:53:07;;;;;;;9.63;5.50;;;17.60;99.90;;;;;;4128206;28;20039;-72
2021/07/23 03:55:10;;;;;;;7.10;5.93;;;17.50;99.90;;;;;;4148825;28;20125;-72
2021/07/23 03:57:11;;;;;;;5.65;5.05;;;17.60;99.90;;;;;;4146490;28;20117;-72
2021/07/23 03:59:11;;;;;;;8.27;5.72;;;17.50;99.90;;;;;;4148649;28;20042;-72
2021/07/23 04:01:12;;;;;;;6.97;5.18;;;17.50;99.90;;;;;;4150036;28;20033;-72
2021/07/23 04:03:13;;;;;;;8.00;5.60;;;17.50;99.90;;;;;;4110636;28;20509;-72
2021/07/23 04:05:14;;;;;;;8.25;5.57;;;17.50;99.90;;;;;;4131319;28;20031;-73
2021/07/23 04:07:14;;;;;;;7.38;5.50;;;17.50;99.90;;;;;;4126132;28;20077;-72
2021/07/23 04:09:15;;;;;;;6.47;5.65;;;17.50;99.90;;;;;;4143012;28;20782;-72
2021/07/23 04:11:17;;;;;;;7.95;5.68;;;17.40;99.90;;;;;;4146549;28;20052;-72
2021/07/23 04:13:17;;;;;;;6.73;5.43;;;17.40;99.90;;;;;;4145268;28;20040;-72
2021/07/23 04:15:20;;;;;;;7.10;5.93;;;17.40;99.90;;;;;;4126079;28;20829;-72
2021/07/23 04:17:20;;;;;;;7.28;6.25;;;17.30;99.90;;;;;;4148430;28;20095;-72
2021/07/23 04:19:21;;;;;;;7.45;6.10;;;17.30;99.90;;;;;;4144295;28;20042;-72
2021/07/23 04:21:22;;;;;;;8.80;6.60;;;17.30;99.90;;;;;;4128494;28;20122;-72
2021/07/23 04:23:22;;;;;;;7.30;6.15;;;17.30;99.90;;;;;;4146108;28;20045;-72
2021/07/23 04:25:24;;;;;;;8.43;6.30;;;17.30;99.90;;;;;;4138218;28;20137;-72
2021/07/23 04:27:25;;;;;;;12.02;6.35;;;17.20;99.90;;;;;;4125888;28;20059;-73
2021/07/23 04:29:25;;;;;;;8.00;6.20;;;17.20;99.90;;;;;;4146753;28;20363;-73
2021/07/23 04:31:27;;;;;;;8.07;6.07;;;17.20;99.90;;;;;;4125584;28;20105;-72
2021/07/23 04:33:28;;;;;;;8.90;7.07;;;17.20;99.90;;;;;;4143807;28;20119;-72
2021/07/23 04:35:28;;;;;;;7.97;6.25;;;17.20;99.90;;;;;;4129657;28;20403;-72
2021/07/23 04:37:29;;;;;;;7.40;6.10;;;17.20;99.90;;;;;;4145454;28;20030;-72
2021/07/23 04:39:30;;;;;;;8.25;6.22;;;17.20;99.90;;;;;;4146826;28;20056;-72
2021/07/23 04:41:31;;;;;;;9.05;6.65;;;17.10;99.90;;;;;;4128989;28;20069;-73
2021/07/23 04:43:32;;;;;;;7.80;6.05;;;17.20;99.90;;;;;;4148286;28;20482;-72
2021/07/23 04:45:32;;;;;;;8.52;6.50;;;17.10;99.90;;;;;;4131989;28;20046;-73
2021/07/23 04:47:34;;;;;;;7.97;6.13;;;17.10;99.90;;;;;;4115828;28;20042;-72
2021/07/23 04:49:34;;;;;;;7.28;5.40;;;17.10;99.90;;;;;;4135351;28;20514;-73
2021/07/23 04:51:35;;;;;;;8.25;6.30;;;17.20;99.90;;;;;;4155938;28;20037;-72
2021/07/23 04:53:36;;;;;;;10.68;6.13;;;17.20;99.90;;;;;;4146083;28;20948;-72
2021/07/23 04:55:36;;;;;;;9.10;5.72;;;17.20;99.90;;;;;;4147954;28;20034;-72
2021/07/23 04:57:45;;;;;;;8.57;6.30;;;17.20;99.90;;;;;;4151254;28;20117;-72
2021/07/23 04:59:45;;;;;;;7.70;6.07;;;17.20;99.90;;;;;;4148595;28;20045;-73
2021/07/23 05:01:46;;;;;;;8.20;6.20;;;17.10;99.90;;;;;;4150135;28;20040;-72
2021/07/23 05:03:46;;;;;;;7.43;5.50;;;17.20;99.90;;;;;;4153136;28;20057;-72
2021/07/23 05:05:48;;;;;;;6.53;5.70;;;17.20;99.90;;;;;;4145345;28;20117;-72
2021/07/23 05:07:49;;;;;;;8.48;5.85;;;17.20;99.90;;;;;;4141609;28;20049;-72
2021/07/23 05:09:50;;;;;;;7.13;5.90;;;17.20;99.90;;;;;;4125227;28;20038;-72
2021/07/23 05:11:51;;;;;;;8.10;5.55;;;17.20;99.90;;;;;;4128934;28;20148;-72
2021/07/23 05:13:51;;;;;;;7.90;5.68;;;17.20;99.90;;;;;;4144858;28;20037;-72
2021/07/23 05:15:53;;;;;;;7.97;5.93;;;17.30;99.90;;;;;;4142735;28;20041;-70
2021/07/23 05:17:54;;;;;;;8.38;5.68;;;17.30;99.90;;;;;;4146053;28;20033;-73
2021/07/23 05:19:54;;;;;;;7.13;5.65;;;17.30;99.90;;;;;;4145869;28;20056;-73
2021/07/23 05:21:55;;;;;;;8.63;6.05;;;17.30;99.90;;;;;;4113007;28;20047;-73
2021/07/23 05:23:56;;;;;;;7.45;5.78;;;17.40;99.90;;;;;;4122257;28;20111;-73
2021/07/23 05:25:58;;;;;;;7.72;5.88;;;17.40;99.90;;;;;;4113672;28;20442;-73
2021/07/23 05:27:59;;;;;;;9.40;6.47;;;17.40;99.90;;;;;;4120419;28;20242;-73
2021/07/23 05:30:00;;;;;;;9.05;5.50;;;17.40;99.90;;;;;;4129425;28;20029;-73
2021/07/23 05:32:00;;;;;;;7.40;5.35;;;17.40;99.90;;;;;;4135573;28;20128;-73
2021/07/23 05:34:04;;;;;;;8.35;5.47;;;17.40;99.90;;;;;;4135826;28;20462;-73
2021/07/23 05:36:04;;;;;;;12.43;6.03;;;17.50;99.90;;;;;;4132941;28;20037;-73
2021/07/23 05:38:13;;;;;;;7.47;5.82;;;17.50;99.90;;;;;;4118136;28;20053;-73
2021/07/23 05:40:16;;;;;;;6.25;5.38;;;17.50;99.90;;;;;;4135039;28;20038;-73
2021/07/23 05:42:16;;;;;;;;;;;17.60;99.90;;;;;;4129782;28;20715;-73
2021/07/23 05:44:17;;;;;;;7.40;5.40;;;17.60;99.90;;;;;;4118168;28;19914;-73
2021/07/23 05:46:17;;;;;;;8.32;6.00;;;17.60;99.90;;;;;;4132535;28;20045;-73
2021/07/23 05:48:18;;;;;;;8.35;6.07;;;17.60;99.90;;;;;;4129795;28;20073;-73
2021/07/23 05:50:19;;;;;;;8.52;5.35;;;17.70;99.90;;;;;;4116040;28;20054;-73
2021/07/23 05:52:19;;;;;;;7.65;5.28;;;17.70;99.90;;;;;;4129853;28;20044;-73
2021/07/23 05:54:20;;;;;;;6.32;5.20;;;17.70;99.90;;;;;;4128696;28;20125;-73
2021/07/23 05:56:20;;;;;;;7.47;5.55;;;17.70;99.90;;;;;;4134408;28;20050;-73
2021/07/23 05:58:21;;;;;;;8.05;5.63;;;17.80;99.90;;;;;;4115524;28;20078;-74
2021/07/23 06:00:22;;;;;;;7.93;5.93;;;17.70;99.90;;;;;;4134004;28;20069;-73
2021/07/23 06:02:22;;;;;;;7.95;5.75;;;17.80;99.90;;;;;;4131247;28;20050;-74
2021/07/23 06:04:23;;;;;;;7.60;5.55;;;17.80;99.90;;;;;;4130873;28;20053;-73
2021/07/23 06:06:24;;;;;;;8.13;5.43;;;17.90;99.90;;;;;;4132505;28;20072;-73
2021/07/23 06:08:24;;;;;;;8.25;6.18;;;17.90;99.90;;;;;;4117258;28;20634;-73
2021/07/23 06:10:25;;;;;;;5.72;5.05;;;17.90;99.90;;;;;;4133469;28;20047;-73
2021/07/23 06:12:25;;;;;;;8.23;5.93;;;18.10;99.90;;;;;;4103275;28;20666;-74
2021/07/23 06:14:26;;;;;;;7.03;5.68;;;18.30;99.90;;;;;;4136775;28;20038;-74
2021/07/23 06:16:26;;;;;;;9.82;6.15;;;18.60;99.90;;;;;;4120641;28;20046;-74
2021/07/23 06:18:27;;;;;;;7.43;5.32;;;18.90;99.90;;;;;;4138240;28;20091;-73
2021/07/23 06:20:28;;;;;;;7.07;4.68;;;19.30;99.90;;;;;;4118322;28;20046;-73
2021/07/23 06:22:28;;;;;;;5.20;4.65;;;19.60;99.90;;;;;;4115744;28;20153;-74
2021/07/23 06:24:29;;;;;;;5.60;4.47;;;19.90;99.90;;;;;;4120266;28;20038;-74
2021/07/23 06:26:29;;;;;;;6.32;4.40;;;20.20;99.90;;;;;;4116836;28;20499;-74
2021/07/23 06:28:30;;;;;;;6.07;4.50;;;20.60;99.90;;;;;;4131676;28;20045;-74
2021/07/23 06:30:31;;;;;;;6.63;4.85;;;20.90;99.90;;;;;;4136693;28;20042;-74
2021/07/23 06:32:33;;;;;;;7.07;4.65;;;21.20;99.90;;;;;;4134521;28;20133;-74
2021/07/23 06:34:33;;;;;;;8.10;4.78;;;21.50;99.90;;;;;;4117408;28;20172;-74
2021/07/23 06:36:35;;;;;;;5.82;4.10;;;21.70;99.90;;;;;;4136179;28;20173;-74
2021/07/23 06:38:36;;;;;;;5.45;3.67;;;21.90;99.90;;;;;;4134697;28;20049;-74
2021/07/23 06:40:38;;;;;;;5.47;4.15;;;22.10;99.90;;;;;;4137092;28;20034;-74
2021/07/23 06:42:38;;;;;;;4.25;3.80;;;22.30;99.90;;;;;;4133986;28;20038;-74
2021/07/23 06:44:39;;;;;;;8.15;4.22;;;22.30;99.90;;;;;;4135697;28;20034;-74
2021/07/23 06:46:39;;;;;;;7.93;4.32;;;22.30;99.90;;;;;;4135089;28;20478;-74
2021/07/23 06:48:40;;;;;;;6.07;4.05;;;22.20;99.90;;;;;;4133441;28;20509;-74
2021/07/23 06:50:40;;;;;;;4.75;3.72;;;22.20;99.90;;;;;;4135620;28;20041;-74
2021/07/23 06:52:41;;;;;;;8.70;4.53;;;22.10;99.90;;;;;;4118720;28;20053;-74
2021/07/23 06:54:41;;;;;;;6.30;3.70;;;21.90;99.90;;;;;;4137226;28;20029;-74
2021/07/23 06:56:42;;;;;;;6.32;4.10;;;21.80;99.90;;;;;;4132852;28;20034;-74
2021/07/23 06:58:42;;;;;;;5.05;4.20;;;21.70;99.90;;;;;;4117753;28;20070;-74
2021/07/23 07:00:43;;;;;;;7.28;4.38;;;21.50;99.90;;;;;;4101695;28;20039;-74
2021/07/23 07:02:44;;;;;;;6.30;4.47;;;21.40;99.90;;;;;;4135473;28;20688;-74
2021/07/23 07:04:44;;;;;;;9.32;4.65;;;21.10;99.90;;;;;;4116668;28;20125;-74
2021/07/23 07:06:45;;;;;;;6.28;4.47;;;21.00;99.90;;;;;;4118039;28;20042;-74
2021/07/23 07:08:46;;;;;;;7.38;4.60;;;20.90;99.90;;;;;;4134112;28;20141;-74
2021/07/23 07:10:46;;;;;;;8.07;4.50;;;20.80;99.90;;;;;;4132787;28;20042;-74
2021/07/23 07:12:47;;;;;;;5.35;4.28;;;20.80;99.90;;;;;;4118038;28;20045;-74
2021/07/23 07:14:47;;;;;;;7.95;4.40;;;20.70;99.90;;;;;;4134573;28;20088;-74
2021/07/23 07:16:48;;;;;;;6.50;4.53;;;20.70;99.90;;;;;;4117460;28;20104;-75
2021/07/23 07:18:49;;;;;;;7.25;4.10;;;20.70;99.90;;;;;;4133686;28;20069;-75
2021/07/23 07:20:49;;;;;;;6.78;4.25;;;20.70;99.90;;;;;;4132373;28;20039;-75
2021/07/23 07:22:54;;;;;;;5.60;4.25;;;20.60;99.90;;;;;;4121493;28;20635;-75
2021/07/23 07:24:55;;;;;;;4.80;3.90;;;20.50;99.90;;;;;;4131720;28;20038;-75
2021/07/23 07:26:55;;;;;;;7.10;3.67;;;20.50;99.90;;;;;;4135187;28;20483;-75
2021/07/23 07:28:56;;;;;;;6.10;4.00;;;20.50;99.90;;;;;;4133675;28;20042;-75
2021/07/23 07:30:56;;;;;;;7.35;3.90;;;20.50;99.90;;;;;;4117828;28;20149;-75
2021/07/23 07:32:58;;;;;;;6.45;4.10;;;20.40;99.90;;;;;;4133973;28;20042;-75
2021/07/23 07:34:58;;;;;;;3.70;3.20;;;20.40;99.90;;;;;;4133124;28;20042;-75
2021/07/23 07:36:59;;;;;;;4.30;3.53;;;20.40;99.90;;;;;;4134684;28;20046;-75
2021/07/23 07:39:00;;;;;;;5.88;3.92;;;20.40;99.90;;;;;;4134197;28;20042;-74
2021/07/23 07:41:00;;;;;;;4.38;3.53;;;20.40;99.90;;;;;;4134677;28;20121;-74
2021/07/23 07:43:01;;;;;;;6.35;4.07;;;20.40;99.90;;;;;;4112962;28;20316;-72
2021/07/23 07:45:05;;;;;;;6.65;4.13;;;20.50;99.90;;;;;;4134483;28;20046;-75
2021/07/23 07:47:06;;;;;;;8.20;4.05;;;20.40;99.90;;;;;;4131042;28;20046;-74
2021/07/23 07:49:06;;;;;;;4.93;3.80;;;20.40;99.90;;;;;;4134468;28;20402;-73
2021/07/23 07:51:08;;;;;;;5.50;3.90;;;20.40;99.90;;;;;;4136118;28;20038;-75
2021/07/23 07:53:09;;;;;;;6.33;3.60;;;20.40;99.90;;;;;;4113627;28;20550;-75
2021/07/23 07:55:10;;;;;;;15.52;3.80;;;20.30;99.90;;;;;;4125495;28;20031;-74
2021/07/23 07:57:11;;;;;;;6.30;3.83;;;20.30;99.90;;;;;;4138388;28;20033;-74
2021/07/23 07:59:11;;;;;;;4.57;3.85;;;20.40;99.90;;;;;;4133882;28;20038;-75
2021/07/23 08:01:14;;;;;;;5.30;3.42;;;20.40;99.90;;;;;;4115295;28;20098;-75
2021/07/23 08:03:14;;;;;;;;;;;20.40;99.90;;;;;;4131125;28;20038;-75
2021/07/23 08:05:15;;;;;;;4.78;3.60;;;20.40;99.90;;;;;;4121672;28;20321;-75
2021/07/23 08:07:23;;;;;;;5.18;2.85;;;20.40;99.90;;;;;;4134854;28;20030;-74
2021/07/23 08:09:24;;;;;;;6.38;3.13;;;20.40;99.90;;;;;;4133389;28;20054;-74
2021/07/23 08:11:24;;;;;;;5.03;3.10;;;20.50;99.90;;;;;;4130353;28;20030;-75
2021/07/23 08:13:27;;;;;;;5.30;2.80;;;20.50;99.90;;;;;;4111702;28;20121;-75
2021/07/23 08:15:27;;;;;;;8.25;3.10;;;20.50;99.90;;;;;;4118485;28;20049;-75
2021/07/23 08:17:28;;;;;;;5.00;2.80;;;20.60;99.90;;;;;;4138060;28;20658;-74
2021/07/23 08:19:29;;;;;;;5.35;2.58;;;20.60;99.90;;;;;;4115645;28;20499;-75
2021/07/23 08:21:31;;;;;;;5.93;2.60;;;20.70;99.90;;;;;;4110857;28;20038;-75
2021/07/23 08:23:34;;;;;;;3.72;2.70;;;20.70;99.90;;;;;;4113390;28;20035;-74
2021/07/23 08:25:34;;;;;;;7.78;3.08;;;20.80;99.90;;;;;;4130639;28;20581;-75
2021/07/23 08:27:35;;;;;;;2.60;2.40;;;20.80;99.90;;;;;;4131683;28;20053;-75
2021/07/23 08:29:36;;;;;;;5.85;3.10;;;20.90;99.90;;;;;;4133514;28;20050;-75
2021/07/23 08:31:36;;;;;;;7.68;2.20;;;20.90;99.90;;;;;;4132415;28;20031;-74
2021/07/23 08:33:37;;;;;;;3.25;2.65;;;21.00;99.90;;;;;;4133249;28;20466;-74
2021/07/23 08:35:39;;;;;;;3.85;2.50;;;21.00;99.90;;;;;;4098828;28;20028;-74
2021/07/23 08:37:40;;;;;;;4.20;2.85;;;21.00;99.90;;;;;;4132378;28;20406;-74
2021/07/23 08:39:42;;;;;;;3.28;2.65;;;21.10;99.90;;;;;;4131901;28;20030;-74
2021/07/23 08:41:43;;;;;;;3.50;2.53;;;21.20;99.90;;;;;;4133198;28;20031;-74
2021/07/23 08:43:46;;;;;;;6.38;2.53;;;21.20;99.90;;;;;;4130775;28;20526;-74
2021/07/23 08:45:47;;;;;;;5.65;2.65;;;21.30;99.90;;;;;;4114027;28;20031;-74
2021/07/23 08:47:48;;;;;;;3.30;2.53;;;21.30;99.90;;;;;;4133549;28;20380;-74
2021/07/23 08:49:49;;;;;;;5.07;3.05;;;21.40;99.90;;;;;;4103017;28;20035;-74
2021/07/23 08:51:53;;;;;;;5.90;3.00;;;21.50;99.90;;;;;;4133881;28;20121;-74
2021/07/23 08:53:53;;;;;;;3.67;2.20;;;21.50;99.90;;;;;;4129034;28;20035;-74
2021/07/23 08:55:54;;;;;;;3.67;2.85;;;21.60;99.90;;;;;;4115407;28;20062;-75
2021/07/23 08:57:54;;;;;;;2.97;2.35;;;21.80;99.90;;;;;;4132145;28;20045;-74
2021/07/23 08:59:55;;;;;;;4.80;2.75;;;21.80;99.90;;;;;;4118178;28;20034;-74
2021/07/23 09:01:56;;;;;;;4.07;2.78;;;21.90;99.90;;;;;;4133973;28;20100;-74
2021/07/23 09:03:57;;;;;;;2.92;2.50;;;21.90;99.90;;;;;;4097739;28;20073;-74
2021/07/23 09:05:58;;;;;;;5.47;2.50;;;22.00;99.90;;;;;;4132297;28;20121;-74
2021/07/23 09:08:00;;;;;;;2.67;2.20;;;22.10;99.90;;;;;;4115533;28;20772;-74
2021/07/23 09:10:05;;;;;;;4.65;2.60;;;22.30;99.90;;;;;;4130840;28;20134;-74
2021/07/23 09:12:06;;;;;;;6.63;2.55;;;22.40;99.90;;;;;;4134620;28;20052;-74
2021/07/23 09:14:11;;;;;;;7.05;3.20;;;22.50;99.90;;;;;;4133459;28;20056;-74
2021/07/23 09:16:25;;;;;;;5.32;2.30;;;22.40;99.90;;;;;;4134788;28;20041;-74
2021/07/23 09:18:35;;;;;;;3.47;2.60;;;22.50;99.90;;;;;;4114900;28;20042;-74
2021/07/23 09:20:36;;;;;;;2.58;2.22;;;22.50;99.90;;;;;;4118350;28;20115;-75
2021/07/23 09:22:52;;;;;;;2.90;2.50;;;22.60;99.90;;;;;;4132654;28;20042;-74
2021/07/23 09:24:53;;;;;;;4.85;2.65;;;22.60;99.90;;;;;;4116682;28;20038;-74
2021/07/23 09:26:53;;;;;;;3.45;2.85;;;22.70;99.90;;;;;;4115538;28;20050;-74
2021/07/23 09:28:55;;;;;;;3.22;2.65;;;22.80;99.90;;;;;;4131012;28;20390;-74
2021/07/23 09:30:58;;;;;;;3.42;2.38;;;22.80;99.90;;;;;;4113208;28;20046;-74
2021/07/23 09:32:58;;;;;;;4.72;2.28;;;22.90;99.90;;;;;;4132584;28;20038;-75
2021/07/23 09:35:09;;;;;;;4.97;2.50;;;23.00;99.90;;;;;;4100213;28;20155;-74
2021/07/23 09:37:11;;;;;;;3.17;2.22;;;23.10;99.90;;;;;;4118881;28;20050;-74
2021/07/23 09:39:18;;;;;;;3.90;3.00;;;23.20;99.90;;;;;;4117206;28;20046;-75
2021/07/23 09:41:21;;;;;;;13.10;3.10;;;23.30;99.90;;;;;;4113806;28;20806;-75
2021/07/23 09:43:29;;;;;;;3.70;2.47;;;23.50;99.90;;;;;;4113374;28;20035;-74
2021/07/23 09:45:32;;;;;;;3.85;2.53;;;23.50;99.90;;;;;;4112544;28;20042;-74
2021/07/23 09:47:32;;;;;;;3.90;2.25;;;23.70;99.90;;;;;;4133217;28;20061;-75
2021/07/23 09:49:33;;;;;;;3.03;2.42;;;23.70;99.90;;;;;;4112223;28;20035;-74
2021/07/23 09:51:37;;;;;;;4.18;2.88;;;23.70;99.90;;;;;;4130051;28;20474;-75
2021/07/23 09:53:38;;;;;;;3.25;2.28;;;23.70;99.90;;;;;;4131151;28;20042;-75
2021/07/23 09:55:40;;;;;;;5.35;2.60;;;23.70;99.90;;;;;;4134476;28;20057;-74
2021/07/23 09:57:45;;;;;;;5.03;2.63;;;23.70;99.90;;;;;;4116458;28;20061;-74
2021/07/23 10:00:10;;;;;;;8.38;2.88;;;23.70;98.90;;;;;;4132132;28;20556;-74
2021/07/23 10:02:17;;;;;;;7.03;2.60;;;23.70;99.90;;;;;;4114241;28;20584;-74
2021/07/23 10:04:30;;;;;;;4.15;2.75;;;23.70;99.90;;;;;;4131519;28;20062;-74
2021/07/23 10:06:36;;;;;;;4.18;2.53;;;23.80;99.90;;;;;;4117423;28;20070;-74
2021/07/23 10:08:40;;;;;;;6.45;3.55;;;23.90;99.90;;;;;;4103193;28;20138;-74
2021/07/23 10:10:43;;;;;;;4.20;2.55;;;23.90;99.50;;;;;;4134029;28;20151;-75
2021/07/23 10:12:45;;;;;;;9.48;3.47;;;24.00;99.90;;;;;;4114237;28;20625;-74
2021/07/23 10:14:47;;;;;;;4.43;3.53;;;24.10;99.20;;;;;;4116585;28;20038;-74
2021/07/23 10:16:51;;;;;;;8.45;3.83;;;24.10;99.90;;;;;;4118738;28;20043;-74
2021/07/23 10:18:52;;;;;;;3.45;2.88;;;24.10;99.90;;;;;;4134330;28;20034;-74
2021/07/23 10:20:54;;;;;;;4.72;2.58;;;24.00;99.50;;;;;;4111160;28;20595;-74
2021/07/23 10:22:55;;;;;;;4.47;2.67;;;24.10;99.90;;;;;;4133358;28;20036;-74
2021/07/23 10:24:56;;;;;;;3.10;2.80;;;24.20;99.60;;;;;;4133336;28;20060;-74
2021/07/23 10:26:58;;;;;;;6.53;2.75;;;24.30;99.90;;;;;;4135002;28;20038;-74
2021/07/23 10:28:59;;;;;;;4.60;3.00;;;24.40;99.90;;;;;;4132584;28;20045;-74
2021/07/23 10:31:00;;;;;;;3.17;2.67;;;24.40;98.10;;;;;;4110767;28;20635;-74
2021/07/23 10:33:01;;;;;;;5.07;2.72;;;24.40;99.90;;;;;;4113655;28;20149;-74